createdAt,value
2022-10-11T00:02:03.025Z,17.20
2022-10-11T00:04:32.044Z,17.20
2022-10-11T00:06:59.795Z,17.10
2022-10-11T00:09:28.669Z,17.10
2022-10-11T00:11:56.954Z,17.10
2022-10-11T00:14:24.693Z,17.10
2022-10-11T00:16:52.932Z,17.10
2022-10-11T00:19:20.845Z,17.20
2022-10-11T00:21:52.378Z,17.20
2022-10-11T00:24:20.141Z,17.20
2022-10-11T00:26:50.305Z,17.30
2022-10-11T00:29:18.051Z,17.30
2022-10-11T00:31:45.763Z,17.30
2022-10-11T00:34:15.474Z,17.30
2022-10-11T00:36:43.144Z,17.20
2022-10-11T00:39:14.408Z,17.20
2022-10-11T00:41:42.909Z,17.10
2022-10-11T00:44:13.773Z,17.10
2022-10-11T00:46:45.337Z,17.10
2022-10-11T00:49:20.472Z,17.20
2022-10-11T00:51:58.149Z,17.20
2022-10-11T00:54:32.443Z,17.10
2022-10-11T00:57:04.380Z,17.10
2022-10-11T00:59:37.345Z,17.10
2022-10-11T01:02:07.605Z,17.10
2022-10-11T01:04:37.614Z,17.20
2022-10-11T01:07:05.529Z,17.20
2022-10-11T01:09:34.718Z,17.20
2022-10-11T01:12:05.603Z,17.20
2022-10-11T01:14:43.481Z,17.30
2022-10-11T01:17:21.735Z,17.20
2022-10-11T01:20:03.338Z,17.30
2022-10-11T01:22:54.270Z,17.30
2022-10-11T01:25:30.848Z,17.30
2022-10-11T01:28:20.259Z,17.20
2022-10-11T01:30:52.038Z,17.10
2022-10-11T01:33:28.458Z,17.10
2022-10-11T01:36:07.526Z,17.10
2022-10-11T01:38:38.854Z,17.00
2022-10-11T01:41:11.545Z,17.00
2022-10-11T01:43:41.513Z,17.00
2022-10-11T01:46:12.150Z,17.10
2022-10-11T01:48:56.568Z,17.10
2022-10-11T01:51:28.012Z,17.20
2022-10-11T01:54:16.269Z,17.20
2022-10-11T01:56:57.561Z,17.20
2022-10-11T01:59:40.039Z,17.10
2022-10-11T02:02:20.669Z,16.90
2022-10-11T02:04:56.529Z,16.90
2022-10-11T02:07:35.217Z,16.90
2022-10-11T02:10:11.153Z,17.00
2022-10-11T02:12:43.141Z,17.00
2022-10-11T02:15:14.394Z,17.00
2022-10-11T02:17:48.653Z,17.10
2022-10-11T02:20:20.794Z,17.20
2022-10-11T02:22:52.066Z,17.10
2022-10-11T02:25:24.489Z,17.00
2022-10-11T02:27:54.237Z,17.00
2022-10-11T02:30:22.051Z,17.00
2022-10-11T02:32:53.545Z,17.00
2022-10-11T02:35:25.302Z,17.00
2022-10-11T02:37:55.289Z,17.00
2022-10-11T02:40:28.462Z,16.90
2022-10-11T02:43:05.643Z,16.90
2022-10-11T02:45:38.785Z,16.90
2022-10-11T02:48:09.054Z,16.80
2022-10-11T02:50:37.765Z,16.80
2022-10-11T02:53:05.790Z,16.90
2022-10-11T02:55:33.937Z,16.80
2022-10-11T02:58:01.857Z,16.90
2022-10-11T03:00:29.913Z,16.90
2022-10-11T03:02:57.602Z,16.90
2022-10-11T03:05:26.636Z,16.90
2022-10-11T03:07:54.362Z,16.90
2022-10-11T03:10:22.112Z,16.90
2022-10-11T03:12:50.503Z,16.90
2022-10-11T03:15:18.251Z,16.90
2022-10-11T03:17:45.968Z,16.90
2022-10-11T03:20:13.722Z,17.00
2022-10-11T03:22:42.749Z,16.90
2022-10-11T03:25:10.749Z,17.00
2022-10-11T03:27:38.745Z,16.90
2022-10-11T03:30:08.713Z,16.90
2022-10-11T03:32:36.429Z,16.90
2022-10-11T03:35:04.940Z,16.90
2022-10-11T03:37:32.601Z,16.90
2022-10-11T03:40:05.951Z,16.90
2022-10-11T03:42:33.683Z,17.00
2022-10-11T03:45:04.609Z,17.00
2022-10-11T03:47:32.473Z,17.00
2022-10-11T03:50:00.198Z,17.00
2022-10-11T03:52:27.917Z,17.00
2022-10-11T03:54:55.660Z,17.10
2022-10-11T03:57:24.886Z,17.10
2022-10-11T03:59:52.582Z,17.00
2022-10-11T04:02:21.143Z,16.90
2022-10-11T04:04:48.817Z,16.90
2022-10-11T04:07:16.544Z,16.90
2022-10-11T04:09:44.245Z,16.90
2022-10-11T04:12:11.944Z,16.90
2022-10-11T04:14:43.317Z,16.80
2022-10-11T04:17:11.005Z,16.70
2022-10-11T04:19:38.678Z,16.60
2022-10-11T04:22:06.921Z,16.60
2022-10-11T04:24:34.810Z,16.60
2022-10-11T04:27:02.656Z,16.60
2022-10-11T04:29:32.785Z,16.50
2022-10-11T04:32:02.095Z,16.50
2022-10-11T04:34:29.831Z,16.50
2022-10-11T04:36:57.608Z,16.50
2022-10-11T04:39:25.644Z,16.50
2022-10-11T04:41:53.332Z,16.50
2022-10-11T04:44:21.025Z,16.50
2022-10-11T04:46:48.714Z,16.50
2022-10-11T04:49:17.742Z,16.40
2022-10-11T04:51:45.497Z,16.40
2022-10-11T04:54:13.227Z,16.30
2022-10-11T04:56:41.019Z,16.30
2022-10-11T04:59:08.831Z,16.30
2022-10-11T05:01:36.618Z,16.30
2022-10-11T05:04:04.567Z,16.20
2022-10-11T05:06:33.687Z,16.20
2022-10-11T05:09:01.473Z,16.20
2022-10-11T05:11:29.544Z,16.20
2022-10-11T05:13:57.417Z,16.20
2022-10-11T05:16:25.678Z,16.10
2022-10-11T05:18:53.441Z,16.10
2022-10-11T05:21:22.755Z,16.10
2022-10-11T05:23:53.216Z,16.10
2022-10-11T05:26:21.841Z,16.10
2022-10-11T05:28:50.007Z,16.20
2022-10-11T05:31:17.869Z,16.30
2022-10-11T05:33:45.829Z,16.20
2022-10-11T05:36:14.012Z,16.20
2022-10-11T05:38:42.024Z,16.30
2022-10-11T05:41:13.510Z,16.20
2022-10-11T05:43:41.295Z,16.10
2022-10-11T05:46:09.185Z,16.10
2022-10-11T05:48:37.374Z,16.10
2022-10-11T05:51:07.152Z,16.00
2022-10-11T05:53:35.113Z,16.00
2022-10-11T05:56:03.180Z,16.10
2022-10-11T05:58:32.461Z,16.00
2022-10-11T06:01:00.241Z,16.00
2022-10-11T06:03:28.051Z,15.90
2022-10-11T06:05:57.331Z,15.90
2022-10-11T06:08:25.203Z,16.00
2022-10-11T06:10:52.863Z,16.10
2022-10-11T06:13:20.566Z,16.10
2022-10-11T06:15:49.597Z,16.20
2022-10-11T06:18:17.364Z,16.30
2022-10-11T06:20:45.041Z,16.30
2022-10-11T06:23:12.754Z,16.30
2022-10-11T06:25:40.429Z,16.10
2022-10-11T06:28:08.193Z,16.20
2022-10-11T06:30:35.973Z,16.20
2022-10-11T06:33:05.195Z,16.30
2022-10-11T06:35:39.334Z,16.40
2022-10-11T06:38:09.021Z,16.40
2022-10-11T06:40:39.409Z,16.30
2022-10-11T06:43:07.259Z,16.30
2022-10-11T06:45:34.992Z,16.20
2022-10-11T06:48:05.469Z,16.10
2022-10-11T06:50:57.981Z,16.10
2022-10-11T06:53:22.491Z,16.10
2022-10-11T06:55:51.341Z,16.10
2022-10-11T06:58:19.161Z,16.10
2022-10-11T07:00:46.937Z,16.10
2022-10-11T07:03:14.702Z,16.20
2022-10-11T07:05:43.763Z,16.20
2022-10-11T07:08:11.727Z,16.20
2022-10-11T07:10:39.413Z,16.20
2022-10-11T07:13:07.121Z,16.20
2022-10-11T07:15:37.982Z,16.30
2022-10-11T07:18:06.710Z,16.40
2022-10-11T07:20:34.431Z,16.40
2022-10-11T07:23:03.466Z,16.40
2022-10-11T07:25:31.169Z,16.50
2022-10-11T07:27:58.873Z,16.30
2022-10-11T07:30:26.718Z,16.30
2022-10-11T07:32:54.433Z,16.20
2022-10-11T07:35:22.207Z,16.00
2022-10-11T07:37:49.913Z,16.00
2022-10-11T07:40:18.939Z,16.00
2022-10-11T07:42:46.726Z,16.10
2022-10-11T07:45:14.497Z,16.00
2022-10-11T07:47:46.226Z,16.10
2022-10-11T07:50:14.421Z,16.20
2022-10-11T07:52:42.213Z,16.10
2022-10-11T07:55:10.410Z,16.10
2022-10-11T07:57:39.446Z,16.10
2022-10-11T08:00:08.509Z,16.30
2022-10-11T08:03:17.286Z,16.40
2022-10-11T08:05:48.642Z,16.60
2022-10-11T08:08:16.328Z,16.70
2022-10-11T08:10:45.335Z,16.70
2022-10-11T08:13:13.010Z,16.90
2022-10-11T08:15:40.741Z,17.00
2022-10-11T08:18:11.699Z,17.20
2022-10-11T08:20:42.307Z,17.40
2022-10-11T08:23:14.093Z,17.50
2022-10-11T08:25:47.223Z,17.90
2022-10-11T08:28:17.545Z,18.40
2022-10-11T08:30:50.221Z,18.60
2022-10-11T08:33:22.063Z,19.20
2022-10-11T08:35:52.308Z,19.40
2022-10-11T08:38:22.081Z,19.80
2022-10-11T08:40:51.978Z,20.10
2022-10-11T08:43:30.729Z,20.00
2022-10-11T08:46:03.490Z,19.60
2022-10-11T08:48:36.273Z,19.40
2022-10-11T08:51:14.647Z,19.10
2022-10-11T08:53:47.174Z,19.40
2022-10-11T08:56:17.125Z,19.20
2022-10-11T08:58:50.189Z,19.20
2022-10-11T09:01:23.124Z,19.00
2022-10-11T09:03:51.961Z,18.90
2022-10-11T09:06:32.415Z,18.60
2022-10-11T09:09:17.783Z,18.40
2022-10-11T09:11:57.007Z,18.30
2022-10-11T09:14:40.088Z,18.30
2022-10-11T09:17:16.120Z,18.40
2022-10-11T09:19:59.442Z,18.40
2022-10-11T09:22:38.907Z,18.40
2022-10-11T09:25:19.744Z,18.40
2022-10-11T09:28:03.134Z,18.70
2022-10-11T09:30:31.862Z,18.60
2022-10-11T09:33:06.933Z,18.70
2022-10-11T09:35:43.013Z,18.90
2022-10-11T09:38:19.325Z,19.00
2022-10-11T09:40:59.804Z,18.90
2022-10-11T09:43:27.631Z,18.60
2022-10-11T09:45:55.413Z,18.50
2022-10-11T09:48:25.869Z,18.50
2022-10-11T09:50:59.242Z,18.60
2022-10-11T09:53:56.973Z,18.60
2022-10-11T09:56:28.538Z,18.70
2022-10-11T09:59:27.362Z,18.80
2022-10-11T10:02:28.001Z,19.00
2022-10-11T10:05:00.357Z,19.40
2022-10-11T10:07:30.259Z,19.60
2022-10-11T10:09:58.432Z,19.90
2022-10-11T10:12:30.212Z,20.00
2022-10-11T10:15:07.134Z,20.10
2022-10-11T10:17:35.396Z,20.10
2022-10-11T10:20:05.508Z,20.20
2022-10-11T10:22:36.392Z,20.50
2022-10-11T10:25:10.396Z,21.00
2022-10-11T10:27:42.629Z,21.20
2022-10-11T10:30:17.205Z,21.40
2022-10-11T10:32:54.329Z,22.00
2022-10-11T10:35:39.182Z,22.20
2022-10-11T10:38:16.185Z,22.20
2022-10-11T10:40:49.980Z,22.90
2022-10-11T10:43:21.089Z,23.40
2022-10-11T10:46:11.813Z,23.10
2022-10-11T10:49:19.170Z,23.70
2022-10-11T10:51:44.056Z,23.90
2022-10-11T10:54:26.077Z,23.80
2022-10-11T10:56:58.231Z,24.10
2022-10-11T10:59:45.942Z,24.40
2022-10-11T11:05:27.893Z,24.40
2022-10-11T11:08:08.098Z,25.00
2022-10-11T11:10:44.120Z,25.70
2022-10-11T11:13:24.974Z,25.70
2022-10-11T11:16:16.466Z,25.90
2022-10-11T11:18:52.087Z,26.00
2022-10-11T11:21:31.712Z,26.30
2022-10-11T11:24:13.858Z,25.50
2022-10-11T11:26:50.900Z,25.80
2022-10-11T11:29:31.249Z,26.00
2022-10-11T11:32:13.764Z,25.90
2022-10-11T11:34:46.659Z,25.70
2022-10-11T11:37:23.713Z,25.20
2022-10-11T11:39:54.852Z,24.70
2022-10-11T11:42:27.644Z,24.40
2022-10-11T11:44:55.491Z,24.10
2022-10-11T11:47:31.201Z,23.50
2022-10-11T11:50:02.300Z,22.90
2022-10-11T11:52:36.844Z,22.60
2022-10-11T11:55:12.109Z,22.40
2022-10-11T11:57:54.954Z,22.10
2022-10-11T12:00:25.139Z,21.90
2022-10-11T12:03:00.697Z,21.70
2022-10-11T12:05:31.744Z,21.40
2022-10-11T12:08:01.897Z,21.40
2022-10-11T12:10:35.540Z,21.50
2022-10-11T12:13:27.307Z,21.50
2022-10-11T12:16:02.688Z,21.40
2022-10-11T12:18:33.074Z,21.30
2022-10-11T12:21:05.758Z,21.30
2022-10-11T12:23:49.515Z,21.20
2022-10-11T12:26:33.806Z,21.00
2022-10-11T12:29:27.399Z,21.00
2022-10-11T12:32:32.149Z,20.80
2022-10-11T12:38:23.586Z,20.70
2022-10-11T12:40:54.213Z,20.80
2022-10-11T12:43:30.286Z,21.00
2022-10-11T12:46:30.962Z,21.10
2022-10-11T12:49:05.238Z,21.00
2022-10-11T12:51:39.836Z,21.00
2022-10-11T12:54:31.023Z,21.00
2022-10-11T12:57:29.717Z,21.00
2022-10-11T13:00:17.702Z,20.80
2022-10-11T13:02:45.637Z,20.60
2022-10-11T13:05:22.004Z,20.60
2022-10-11T13:07:51.635Z,20.60
2022-10-11T13:10:25.532Z,20.70
2022-10-11T13:12:55.707Z,20.70
2022-10-11T13:15:25.196Z,20.50
2022-10-11T13:17:59.654Z,20.30
2022-10-11T13:20:30.328Z,20.40
2022-10-11T13:22:58.645Z,20.30
2022-10-11T13:25:30.155Z,20.10
2022-10-11T13:28:01.641Z,20.00
2022-10-11T13:30:32.501Z,19.80
2022-10-11T13:33:01.497Z,19.60
2022-10-11T13:35:35.652Z,19.50
2022-10-11T13:38:04.401Z,19.60
2022-10-11T13:40:33.681Z,19.70
2022-10-11T13:43:01.889Z,19.80
2022-10-11T13:45:31.382Z,19.80
2022-10-11T13:48:03.255Z,19.90
2022-10-11T13:50:34.372Z,19.90
2022-10-11T13:53:03.842Z,19.80
2022-10-11T13:55:35.169Z,19.50
2022-10-11T13:58:11.980Z,19.40
2022-10-11T14:00:54.687Z,19.20
2022-10-11T14:03:26.509Z,19.10
2022-10-11T14:05:56.711Z,19.00
2022-10-11T14:08:29.348Z,19.00
2022-10-11T14:11:03.763Z,19.00
2022-10-11T14:13:37.265Z,19.00
2022-10-11T14:16:08.219Z,18.90
2022-10-11T14:18:43.210Z,18.90
2022-10-11T14:21:28.610Z,18.90
2022-10-11T14:23:58.249Z,19.00
2022-10-11T14:26:31.592Z,19.00
2022-10-11T14:29:02.305Z,19.10
2022-10-11T14:31:30.476Z,19.10
2022-10-11T14:33:58.641Z,19.00
2022-10-11T14:36:26.707Z,19.10
2022-10-11T14:38:54.658Z,19.10
2022-10-11T14:41:25.949Z,19.10
2022-10-11T14:44:01.120Z,19.20
2022-10-11T14:46:30.171Z,19.20
2022-10-11T14:48:58.128Z,19.00
2022-10-11T14:51:30.382Z,19.10
2022-10-11T14:53:58.830Z,19.10
2022-10-11T14:56:26.977Z,19.20
2022-10-11T14:58:57.243Z,19.20
2022-10-11T15:01:26.576Z,19.10
2022-10-11T15:03:56.751Z,19.00
2022-10-11T15:06:28.225Z,18.80
2022-10-11T15:08:58.865Z,18.70
2022-10-11T15:11:27.576Z,18.60
2022-10-11T15:13:55.334Z,18.40
2022-10-11T15:16:23.591Z,18.30
2022-10-11T15:18:52.612Z,18.50
2022-10-11T15:21:21.849Z,18.50
2022-10-11T15:23:51.782Z,18.50
2022-10-11T15:26:22.266Z,18.40
2022-10-11T15:28:51.543Z,18.30
2022-10-11T15:31:19.733Z,18.20
2022-10-11T15:33:47.472Z,18.20
2022-10-11T15:36:21.105Z,18.20
2022-10-11T15:38:50.047Z,18.20
2022-10-11T15:41:19.972Z,18.20
2022-10-11T15:43:50.417Z,18.10
2022-10-11T15:46:26.027Z,18.00
2022-10-11T15:48:54.115Z,18.10
2022-10-11T15:51:23.178Z,18.10
2022-10-11T15:53:50.865Z,18.10
2022-10-11T15:56:20.428Z,18.00
2022-10-11T15:58:49.306Z,18.00
2022-10-11T16:01:19.591Z,17.90
2022-10-11T16:03:48.618Z,17.80
2022-10-11T16:06:16.703Z,17.80
2022-10-11T16:08:45.971Z,17.90
2022-10-11T16:11:15.056Z,17.80
2022-10-11T16:13:42.853Z,17.70
2022-10-11T16:16:12.018Z,17.60
2022-10-11T16:18:40.961Z,17.50
2022-10-11T16:21:10.755Z,17.60
2022-10-11T16:23:39.849Z,17.60
2022-10-11T16:26:16.194Z,17.60
2022-10-11T16:28:44.103Z,17.60
2022-10-11T16:31:14.836Z,17.70
2022-10-11T16:33:46.438Z,17.70
2022-10-11T16:36:29.389Z,17.60
2022-10-11T16:38:57.140Z,17.60
2022-10-11T16:41:26.145Z,17.50
2022-10-11T16:43:55.047Z,17.40
2022-10-11T16:46:23.356Z,17.40
2022-10-11T16:48:51.310Z,17.30
2022-10-11T16:51:19.000Z,17.30
2022-10-11T16:53:46.728Z,17.30
2022-10-11T16:56:14.434Z,17.30
2022-10-11T16:58:43.485Z,17.20
2022-10-11T17:01:12.153Z,17.20
2022-10-11T17:03:40.401Z,17.20
2022-10-11T17:06:09.194Z,17.10
2022-10-11T17:08:37.314Z,17.10
2022-10-11T17:11:05.111Z,17.10
2022-10-11T17:13:33.278Z,17.00
2022-10-11T17:16:02.410Z,17.00
2022-10-11T17:18:30.174Z,16.90
2022-10-11T17:21:02.525Z,16.90
2022-10-11T17:23:30.436Z,16.80
2022-10-11T17:25:58.502Z,16.80
2022-10-11T17:28:26.406Z,16.70
2022-10-11T17:30:55.648Z,16.60
2022-10-11T17:33:26.186Z,16.50
2022-10-11T17:35:53.993Z,16.40
2022-10-11T17:38:24.949Z,16.40
2022-10-11T17:40:59.800Z,16.30
2022-10-11T17:43:27.509Z,16.20
2022-10-11T17:45:56.184Z,15.90
2022-10-11T17:48:25.501Z,15.90
2022-10-11T17:50:53.265Z,15.90
2022-10-11T17:53:21.486Z,15.60
2022-10-11T17:55:52.513Z,15.60
2022-10-11T17:58:20.261Z,15.70
2022-10-11T18:00:48.057Z,15.80
2022-10-11T18:03:16.121Z,15.80
2022-10-11T18:05:45.137Z,15.80
2022-10-11T18:08:12.821Z,15.80
2022-10-11T18:10:45.251Z,15.80
2022-10-11T18:13:18.680Z,15.90
2022-10-11T18:15:50.190Z,15.90
2022-10-11T18:18:20.509Z,15.90
2022-10-11T18:20:51.557Z,16.00
2022-10-11T18:23:20.016Z,16.00
2022-10-11T18:25:51.352Z,16.00
2022-10-11T18:28:19.205Z,15.90
2022-10-11T18:30:48.071Z,15.90
2022-10-11T18:33:17.210Z,15.80
2022-10-11T18:35:44.966Z,15.80
2022-10-11T18:38:14.324Z,15.50
2022-10-11T18:40:46.968Z,15.40
2022-10-11T18:43:15.001Z,15.40
2022-10-11T18:45:42.730Z,15.30
2022-10-11T18:48:10.481Z,15.20
2022-10-11T18:50:38.269Z,15.20
2022-10-11T18:53:06.778Z,15.20
2022-10-11T18:55:35.811Z,15.10
2022-10-11T18:58:03.685Z,15.10
2022-10-11T19:00:40.578Z,15.00
2022-10-11T19:03:08.821Z,14.90
2022-10-11T19:05:39.385Z,14.90
2022-10-11T19:08:14.714Z,14.90
2022-10-11T19:10:45.470Z,14.80
2022-10-11T19:13:13.428Z,14.70
2022-10-11T19:15:41.291Z,14.60
2022-10-11T19:18:13.456Z,14.50
2022-10-11T19:20:44.339Z,14.40
2022-10-11T19:23:12.277Z,14.20
2022-10-11T19:25:40.637Z,14.20
2022-10-11T19:28:14.901Z,14.10
2022-10-11T19:30:43.808Z,14.10
2022-10-11T19:33:13.071Z,14.10
2022-10-11T19:35:42.207Z,14.00
2022-10-11T19:38:10.427Z,14.00
2022-10-11T19:40:38.290Z,14.00
2022-10-11T19:43:06.314Z,14.00
2022-10-11T19:45:37.363Z,13.90
2022-10-11T19:48:06.256Z,13.70
2022-10-11T19:50:33.939Z,13.60
2022-10-11T19:53:01.681Z,13.60
2022-10-11T19:55:29.690Z,13.60
2022-10-11T19:57:57.441Z,13.50
2022-10-11T20:00:26.123Z,13.50
2022-10-11T20:02:55.177Z,13.30
2022-10-11T20:05:23.797Z,13.30
2022-10-11T20:07:53.901Z,13.30
2022-10-11T20:10:21.713Z,13.30
2022-10-11T20:12:49.483Z,13.20
2022-10-11T20:15:17.173Z,13.20
2022-10-11T20:17:51.881Z,13.20
2022-10-11T20:20:20.915Z,13.10
2022-10-11T20:22:48.620Z,13.10
2022-10-11T20:25:16.409Z,13.10
2022-10-11T20:27:46.318Z,13.10
2022-10-11T20:30:14.805Z,13.10
2022-10-11T20:32:42.538Z,13.00
2022-10-11T20:35:10.565Z,12.90
2022-10-11T20:37:39.601Z,12.90
2022-10-11T20:40:08.287Z,12.80
2022-10-11T20:42:35.962Z,12.80
2022-10-11T20:45:03.737Z,12.80
2022-10-11T20:47:31.888Z,12.80
2022-10-11T20:49:59.917Z,12.70
2022-10-11T20:52:27.658Z,12.60
2022-10-11T20:54:56.653Z,12.60
2022-10-11T20:57:24.481Z,12.50
2022-10-11T20:59:52.277Z,12.50
2022-10-11T21:02:20.053Z,12.40
2022-10-11T21:04:47.716Z,12.30
2022-10-11T21:07:15.393Z,12.30
2022-10-11T21:09:43.118Z,12.30
2022-10-11T21:12:12.221Z,12.30
2022-10-11T21:14:42.352Z,12.30
2022-10-11T21:17:10.052Z,12.30
2022-10-11T21:19:37.725Z,12.20
2022-10-11T21:22:06.078Z,12.10
2022-10-11T21:24:33.737Z,12.10
2022-10-11T21:27:01.444Z,12.10
2022-10-11T21:29:30.525Z,12.10
2022-10-11T21:31:58.205Z,12.20
2022-10-11T21:34:25.904Z,12.30
2022-10-11T21:36:53.582Z,12.30
2022-10-11T21:39:23.551Z,12.30
2022-10-11T21:41:51.281Z,12.30
2022-10-11T21:44:18.981Z,12.30
2022-10-11T21:47:06.096Z,12.20
2022-10-11T21:49:34.573Z,12.30
2022-10-11T21:52:02.673Z,12.30
2022-10-11T21:54:30.524Z,12.40
2022-10-11T21:56:58.337Z,12.40
2022-10-11T21:59:26.107Z,12.40
2022-10-11T22:01:59.325Z,12.40
2022-10-11T22:04:29.324Z,12.40
2022-10-11T22:06:57.070Z,12.50
2022-10-11T22:09:24.928Z,12.50
2022-10-11T22:11:52.605Z,12.60
2022-10-11T22:14:20.424Z,12.60
2022-10-11T22:16:48.157Z,12.60
2022-10-11T22:19:17.197Z,12.60
2022-10-11T22:21:45.453Z,12.50
2022-10-11T22:24:13.725Z,12.50
2022-10-11T22:26:41.418Z,12.60
2022-10-11T22:29:09.377Z,12.50
2022-10-11T22:31:37.153Z,12.60
2022-10-11T22:34:04.817Z,12.60
2022-10-11T22:36:34.405Z,12.70
2022-10-11T22:39:07.439Z,12.80
2022-10-11T22:41:38.162Z,12.90
2022-10-11T22:44:06.482Z,12.80
2022-10-11T22:46:34.208Z,12.80
2022-10-11T22:49:01.964Z,12.70
2022-10-11T22:51:29.648Z,12.70
2022-10-11T22:53:58.617Z,12.60
2022-10-11T22:56:26.352Z,12.30
2022-10-11T22:58:54.041Z,12.40
2022-10-11T23:01:21.837Z,12.40
2022-10-11T23:03:50.595Z,12.50
2022-10-11T23:06:22.165Z,12.50
2022-10-11T23:08:50.533Z,12.40
2022-10-11T23:11:19.569Z,12.30
2022-10-11T23:13:47.249Z,12.30
2022-10-11T23:16:15.042Z,12.30
2022-10-11T23:18:43.197Z,12.20
2022-10-11T23:21:10.984Z,12.20
2022-10-11T23:23:39.570Z,12.20
2022-10-11T23:26:08.844Z,12.10
2022-10-11T23:28:38.202Z,12.10
2022-10-11T23:31:08.972Z,12.10
2022-10-11T23:33:36.856Z,12.00
2022-10-11T23:36:05.325Z,11.90
2022-10-11T23:38:33.065Z,12.00
2022-10-11T23:41:00.783Z,11.80
2022-10-11T23:43:28.585Z,11.90
2022-10-11T23:45:57.624Z,11.90
2022-10-11T23:48:25.396Z,11.80
2022-10-11T23:50:53.121Z,11.80
2022-10-11T23:53:20.825Z,11.60
2022-10-11T23:55:48.593Z,11.60
2022-10-11T23:58:16.262Z,11.60
